createdAt,value
2022-10-19T00:01:42.160Z,54.30
2022-10-19T00:04:09.693Z,54.35
2022-10-19T00:06:37.981Z,54.21
2022-10-19T00:09:09.476Z,54.21
2022-10-19T00:11:40.437Z,54.19
2022-10-19T00:14:10.826Z,54.34
2022-10-19T00:16:38.772Z,54.24
2022-10-19T00:19:14.576Z,54.21
2022-10-19T00:21:41.991Z,54.13
2022-10-19T00:24:09.863Z,54.24
2022-10-19T00:26:38.614Z,54.23
2022-10-19T00:29:06.903Z,54.15
2022-10-19T00:31:36.117Z,54.33
2022-10-19T00:34:04.498Z,54.25
2022-10-19T00:36:36.400Z,54.37
2022-10-19T00:39:05.896Z,54.29
2022-10-19T00:41:35.462Z,54.38
2022-10-19T00:44:12.053Z,54.27
2022-10-19T00:46:42.204Z,54.19
2022-10-19T00:49:30.003Z,54.44
2022-10-19T00:52:02.653Z,54.43
2022-10-19T00:54:33.455Z,54.49
2022-10-19T00:57:00.922Z,54.36
2022-10-19T00:59:31.796Z,54.50
2022-10-19T01:02:00.788Z,54.42
2022-10-19T01:04:30.521Z,54.44
2022-10-19T01:06:59.602Z,54.43
2022-10-19T01:09:27.670Z,54.60
2022-10-19T01:12:10.329Z,54.50
2022-10-19T01:15:06.153Z,54.58
2022-10-19T01:17:55.280Z,54.42
2022-10-19T01:20:31.682Z,54.43
2022-10-19T01:23:36.792Z,54.46
2022-10-19T01:26:08.067Z,54.45
2022-10-19T01:28:59.687Z,54.63
2022-10-19T01:31:37.205Z,54.59
2022-10-19T01:34:23.114Z,54.62
2022-10-19T01:37:00.996Z,54.47
2022-10-19T01:39:45.329Z,54.56
2022-10-19T01:42:30.416Z,54.51
2022-10-19T01:45:08.646Z,54.70
2022-10-19T01:47:42.132Z,54.73
2022-10-19T01:50:16.569Z,54.64
2022-10-19T01:52:44.127Z,54.59
2022-10-19T01:55:16.210Z,54.59
2022-10-19T01:57:48.101Z,54.72
2022-10-19T02:00:17.086Z,54.71
2022-10-19T02:02:51.229Z,54.66
2022-10-19T02:05:22.000Z,54.68
2022-10-19T02:07:54.695Z,54.68
2022-10-19T02:10:23.127Z,54.66
2022-10-19T02:12:52.070Z,54.73
2022-10-19T02:15:22.402Z,54.69
2022-10-19T02:17:56.790Z,54.79
2022-10-19T02:20:24.344Z,54.81
2022-10-19T02:22:51.869Z,54.81
2022-10-19T02:25:19.756Z,54.65
2022-10-19T02:27:47.343Z,54.56
2022-10-19T02:30:17.063Z,54.89
2022-10-19T02:32:44.604Z,54.76
2022-10-19T02:35:14.497Z,54.58
2022-10-19T02:37:42.563Z,54.69
2022-10-19T02:40:10.783Z,54.71
2022-10-19T02:42:48.036Z,54.78
2022-10-19T02:45:31.446Z,54.88
2022-10-19T02:48:17.901Z,54.79
2022-10-19T02:50:47.718Z,54.86
2022-10-19T02:53:16.077Z,54.60
2022-10-19T02:55:43.721Z,54.72
2022-10-19T02:58:11.229Z,54.72
2022-10-19T03:00:38.641Z,54.87
2022-10-19T03:03:06.201Z,54.82
2022-10-19T03:05:33.560Z,54.63
2022-10-19T03:08:01.108Z,54.94
2022-10-19T03:10:28.708Z,54.63
2022-10-19T03:12:59.514Z,54.73
2022-10-19T03:15:29.181Z,54.83
2022-10-19T03:17:57.420Z,54.72
2022-10-19T03:20:24.750Z,54.82
2022-10-19T03:22:55.074Z,54.85
2022-10-19T03:25:22.451Z,54.85
2022-10-19T03:27:49.959Z,54.64
2022-10-19T03:30:17.328Z,54.86
2022-10-19T03:32:44.870Z,54.81
2022-10-19T03:35:12.152Z,54.62
2022-10-19T03:37:39.645Z,54.67
2022-10-19T03:40:07.393Z,54.76
2022-10-19T03:42:35.037Z,54.88
2022-10-19T03:45:02.813Z,54.85
2022-10-19T03:47:30.372Z,54.69
2022-10-19T03:49:57.751Z,54.86
2022-10-19T03:52:25.338Z,54.62
2022-10-19T03:54:52.653Z,54.70
2022-10-19T03:57:20.269Z,54.77
2022-10-19T03:59:48.652Z,54.88
2022-10-19T04:02:16.132Z,54.79
2022-10-19T04:04:43.425Z,54.73
2022-10-19T04:07:10.949Z,54.92
2022-10-19T04:09:39.311Z,54.75
2022-10-19T04:12:07.189Z,54.78
2022-10-19T04:14:52.481Z,54.87
2022-10-19T04:17:22.141Z,54.83
2022-10-19T04:19:49.545Z,54.73
2022-10-19T04:22:17.020Z,54.72
2022-10-19T04:24:44.437Z,54.70
2022-10-19T04:27:11.989Z,54.67
2022-10-19T04:29:39.273Z,54.60
2022-10-19T04:32:06.898Z,54.67
2022-10-19T04:34:36.427Z,54.53
2022-10-19T04:37:06.758Z,54.73
2022-10-19T04:39:34.176Z,54.66
2022-10-19T04:42:01.970Z,54.71
2022-10-19T04:44:29.294Z,54.67
2022-10-19T04:46:56.794Z,54.75
2022-10-19T04:49:24.201Z,54.85
2022-10-19T04:51:51.742Z,54.59
2022-10-19T04:54:19.228Z,54.77
2022-10-19T04:56:46.737Z,54.79
2022-10-19T04:59:14.098Z,54.65
2022-10-19T05:01:46.515Z,54.78
2022-10-19T05:04:15.418Z,54.79
2022-10-19T05:06:43.021Z,54.84
2022-10-19T05:09:10.600Z,54.75
2022-10-19T05:11:38.260Z,54.93
2022-10-19T05:14:06.273Z,54.73
2022-10-19T05:16:33.755Z,54.95
2022-10-19T05:19:01.659Z,54.88
2022-10-19T05:21:29.524Z,54.78
2022-10-19T05:23:57.160Z,54.93
2022-10-19T05:26:27.832Z,54.80
2022-10-19T05:28:57.879Z,54.95
2022-10-19T05:31:28.945Z,54.81
2022-10-19T05:33:57.324Z,54.85
2022-10-19T05:36:36.851Z,54.76
2022-10-19T05:39:15.748Z,54.86
2022-10-19T05:41:45.112Z,54.79
2022-10-19T05:44:18.406Z,55.12
2022-10-19T05:46:46.461Z,54.82
2022-10-19T05:49:15.799Z,54.93
2022-10-19T05:51:44.194Z,55.25
2022-10-19T05:54:12.489Z,55.24
2022-10-19T05:56:41.587Z,55.17
2022-10-19T05:59:17.890Z,55.19
2022-10-19T06:01:46.875Z,55.33
2022-10-19T06:04:14.958Z,55.34
2022-10-19T06:06:42.999Z,55.15
2022-10-19T06:09:11.161Z,55.19
2022-10-19T06:11:40.749Z,55.39
2022-10-19T06:14:12.848Z,55.32
2022-10-19T06:16:41.333Z,55.25
2022-10-19T06:19:08.802Z,55.22
2022-10-19T06:21:36.305Z,55.18
2022-10-19T06:24:05.746Z,55.32
2022-10-19T06:26:34.307Z,55.11
2022-10-19T06:29:04.128Z,55.05
2022-10-19T06:31:36.568Z,55.10
2022-10-19T06:34:04.939Z,55.29
2022-10-19T06:36:33.075Z,55.15
2022-10-19T06:39:01.909Z,55.19
2022-10-19T06:41:31.428Z,55.12
2022-10-19T06:43:59.045Z,54.98
2022-10-19T06:46:27.368Z,55.10
2022-10-19T06:49:00.570Z,55.11
2022-10-19T06:51:30.328Z,54.95
2022-10-19T06:53:57.926Z,54.99
2022-10-19T06:56:26.632Z,55.02
2022-10-19T06:58:55.229Z,55.09
2022-10-19T07:01:23.257Z,55.07
2022-10-19T07:03:52.104Z,55.04
2022-10-19T07:06:20.367Z,55.02
2022-10-19T07:08:48.078Z,55.01
2022-10-19T07:11:18.321Z,54.95
2022-10-19T07:13:45.727Z,54.96
2022-10-19T07:16:19.742Z,55.05
2022-10-19T07:18:51.784Z,54.87
2022-10-19T07:21:22.194Z,54.95
2022-10-19T07:23:49.660Z,54.95
2022-10-19T07:26:23.907Z,54.97
2022-10-19T07:28:51.636Z,54.88
2022-10-19T07:31:22.081Z,54.92
2022-10-19T07:34:00.110Z,54.83
2022-10-19T07:36:30.370Z,54.89
2022-10-19T07:38:57.890Z,54.83
2022-10-19T07:41:26.161Z,54.89
2022-10-19T07:43:54.681Z,54.88
2022-10-19T07:46:25.362Z,54.79
2022-10-19T07:48:53.569Z,54.79
2022-10-19T07:51:22.989Z,54.68
2022-10-19T07:53:50.690Z,54.68
2022-10-19T07:56:24.006Z,54.56
2022-10-19T07:58:53.650Z,54.65
2022-10-19T08:01:23.301Z,54.52
2022-10-19T08:06:40.938Z,54.51
2022-10-19T08:09:08.450Z,54.53
2022-10-19T08:11:36.509Z,54.60
2022-10-19T08:14:04.202Z,54.53
2022-10-19T08:16:38.871Z,54.63
2022-10-19T08:19:09.641Z,54.62
2022-10-19T08:21:38.635Z,54.55
2022-10-19T08:24:06.598Z,54.50
2022-10-19T08:26:38.083Z,54.47
2022-10-19T08:29:12.561Z,54.41
2022-10-19T08:31:40.773Z,54.49
2022-10-19T08:34:08.592Z,54.52
2022-10-19T08:36:37.032Z,54.28
2022-10-19T08:39:07.110Z,54.41
2022-10-19T08:41:41.275Z,54.23
2022-10-19T08:44:56.362Z,54.14
2022-10-19T08:47:45.489Z,54.35
2022-10-19T08:50:24.299Z,54.17
2022-10-19T08:53:03.344Z,54.26
2022-10-19T08:55:42.873Z,54.27
2022-10-19T08:58:26.701Z,54.20
2022-10-19T09:01:33.943Z,54.11
2022-10-19T09:04:19.685Z,54.13
2022-10-19T09:06:58.533Z,54.14
2022-10-19T09:09:29.998Z,54.15
2022-10-19T09:12:05.410Z,54.10
2022-10-19T09:14:57.642Z,54.07
2022-10-19T09:17:27.982Z,54.00
2022-10-19T09:19:56.745Z,53.99
2022-10-19T09:22:32.331Z,54.03
2022-10-19T09:25:22.379Z,54.00
2022-10-19T09:28:06.284Z,54.09
2022-10-19T09:30:37.683Z,54.08
2022-10-19T09:33:15.236Z,53.99
2022-10-19T09:35:45.726Z,53.96
2022-10-19T09:38:19.815Z,54.16
2022-10-19T09:40:47.283Z,53.96
2022-10-19T09:43:22.007Z,54.00
2022-10-19T09:45:55.355Z,54.04
2022-10-19T09:48:46.718Z,53.96
2022-10-19T09:51:16.277Z,53.96
2022-10-19T09:53:50.117Z,54.04
2022-10-19T09:56:21.285Z,53.90
2022-10-19T09:58:57.344Z,54.04
2022-10-19T10:01:41.440Z,53.82
2022-10-19T10:04:15.698Z,54.13
2022-10-19T10:06:46.690Z,54.12
2022-10-19T10:09:19.563Z,53.96
2022-10-19T10:11:50.610Z,54.04
2022-10-19T10:14:26.958Z,54.04
2022-10-19T10:17:16.382Z,53.97
2022-10-19T10:19:58.971Z,53.97
2022-10-19T10:22:33.064Z,53.94
2022-10-19T10:25:01.216Z,53.93
2022-10-19T10:27:36.038Z,53.91
2022-10-19T10:30:18.211Z,53.92
2022-10-19T10:32:51.908Z,53.92
2022-10-19T10:35:32.169Z,53.96
2022-10-19T10:38:19.905Z,53.90
2022-10-19T10:40:54.003Z,53.87
2022-10-19T10:43:31.734Z,53.73
2022-10-19T10:46:07.753Z,53.96
2022-10-19T10:48:47.689Z,53.82
2022-10-19T10:51:43.302Z,53.85
2022-10-19T10:54:21.257Z,53.69
2022-10-19T10:57:15.641Z,53.84
2022-10-19T10:59:54.235Z,53.98
2022-10-19T11:02:30.504Z,53.86
2022-10-19T11:05:10.461Z,53.85
2022-10-19T11:07:43.829Z,53.75
2022-10-19T11:10:22.258Z,53.78
2022-10-19T11:12:57.270Z,53.78
2022-10-19T11:15:35.255Z,53.65
2022-10-19T11:18:34.826Z,53.66
2022-10-19T11:21:11.017Z,53.79
2022-10-19T11:23:44.386Z,53.71
2022-10-19T11:26:26.319Z,53.71
2022-10-19T11:29:16.974Z,53.46
2022-10-19T11:31:48.452Z,53.59
2022-10-19T11:35:01.786Z,53.53
2022-10-19T11:38:17.311Z,53.49
2022-10-19T11:41:19.108Z,53.61
2022-10-19T11:43:49.596Z,53.24
2022-10-19T11:46:38.947Z,53.54
2022-10-19T11:49:12.509Z,53.54
2022-10-19T11:51:49.660Z,53.49
2022-10-19T11:54:29.448Z,53.52
2022-10-19T11:57:05.517Z,53.21
2022-10-19T11:59:53.417Z,53.45
2022-10-19T12:02:39.626Z,53.27
2022-10-19T12:05:22.627Z,53.29
2022-10-19T12:11:09.886Z,53.18
2022-10-19T12:13:49.282Z,53.33
2022-10-19T12:16:20.582Z,53.26
2022-10-19T12:18:52.077Z,53.24
2022-10-19T12:21:25.659Z,52.99
2022-10-19T12:23:54.322Z,53.13
2022-10-19T12:26:23.314Z,53.11
2022-10-19T12:28:55.902Z,53.04
2022-10-19T12:31:28.006Z,53.17
2022-10-19T12:34:47.798Z,53.27
2022-10-19T12:37:47.393Z,53.15
2022-10-19T12:40:35.190Z,53.04
2022-10-19T12:43:27.813Z,52.98
2022-10-19T12:46:05.638Z,53.18
2022-10-19T12:48:36.262Z,53.01
2022-10-19T12:51:07.379Z,53.13
2022-10-19T12:53:55.121Z,53.15
2022-10-19T12:56:25.598Z,53.00
2022-10-19T12:59:01.656Z,52.86
2022-10-19T13:01:44.329Z,53.03
2022-10-19T13:04:13.793Z,52.80
2022-10-19T13:06:44.940Z,53.00
2022-10-19T13:09:24.537Z,52.58
2022-10-19T13:12:16.248Z,52.73
2022-10-19T13:14:53.144Z,52.66
2022-10-19T13:17:46.200Z,52.90
2022-10-19T13:20:13.737Z,52.67
2022-10-19T13:23:11.917Z,52.80
2022-10-19T13:25:40.858Z,52.70
2022-10-19T13:28:09.252Z,53.04
2022-10-19T13:30:40.751Z,52.81
2022-10-19T13:33:29.561Z,52.71
2022-10-19T13:35:59.856Z,52.67
2022-10-19T13:38:39.414Z,52.81
2022-10-19T13:41:10.325Z,52.63
2022-10-19T13:43:50.300Z,52.67
2022-10-19T13:46:39.734Z,52.74
2022-10-19T13:49:12.975Z,52.79
2022-10-19T13:52:00.789Z,52.66
2022-10-19T13:54:50.866Z,52.71
2022-10-19T13:57:33.849Z,52.75
2022-10-19T14:00:17.588Z,53.14
2022-10-19T14:03:05.347Z,52.72
2022-10-19T14:05:47.556Z,52.74
2022-10-19T14:08:36.425Z,52.61
2022-10-19T14:11:12.298Z,52.60
2022-10-19T14:13:39.922Z,52.79
2022-10-19T14:16:07.383Z,52.83
2022-10-19T14:18:36.479Z,52.77
2022-10-19T14:21:08.888Z,52.97
2022-10-19T14:23:41.314Z,52.87
2022-10-19T14:26:20.524Z,52.99
2022-10-19T14:28:53.960Z,52.88
2022-10-19T14:31:24.644Z,52.91
2022-10-19T14:33:56.145Z,52.95
2022-10-19T14:36:28.078Z,52.93
2022-10-19T14:38:56.334Z,52.95
2022-10-19T14:41:26.726Z,52.72
2022-10-19T14:43:56.126Z,52.81
2022-10-19T14:46:33.633Z,52.99
2022-10-19T14:49:05.797Z,52.76
2022-10-19T14:51:45.300Z,52.89
2022-10-19T14:54:38.583Z,52.88
2022-10-19T14:57:06.480Z,53.10
2022-10-19T14:59:47.642Z,52.91
2022-10-19T15:02:23.549Z,52.92
2022-10-19T15:04:53.216Z,52.84
2022-10-19T15:07:44.778Z,52.90
2022-10-19T15:10:43.230Z,52.66
2022-10-19T15:13:26.660Z,52.70
2022-10-19T15:15:55.360Z,52.80
2022-10-19T15:18:47.622Z,52.67
2022-10-19T15:21:19.556Z,52.90
2022-10-19T15:23:50.660Z,52.90
2022-10-19T15:26:19.904Z,52.97
2022-10-19T15:28:48.580Z,52.98
2022-10-19T15:31:27.666Z,52.94
2022-10-19T15:33:58.137Z,52.97
2022-10-19T15:36:27.642Z,53.09
2022-10-19T15:39:06.228Z,53.14
2022-10-19T15:41:45.597Z,53.22
2022-10-19T15:44:40.007Z,53.25
2022-10-19T15:47:20.895Z,53.29
2022-10-19T15:49:54.158Z,53.36
2022-10-19T15:52:32.273Z,53.48
2022-10-19T15:55:00.791Z,53.35
2022-10-19T15:57:29.813Z,53.40
2022-10-19T15:59:59.554Z,53.71
2022-10-19T16:02:27.131Z,53.62
2022-10-19T16:04:54.798Z,53.75
2022-10-19T16:07:29.124Z,53.82
2022-10-19T16:09:57.498Z,53.80
2022-10-19T16:12:26.595Z,53.89
2022-10-19T16:14:54.621Z,53.95
2022-10-19T16:17:23.106Z,54.05
2022-10-19T16:19:50.450Z,54.05
2022-10-19T16:22:17.984Z,53.97
2022-10-19T16:24:45.312Z,54.01
2022-10-19T16:27:16.324Z,54.15
2022-10-19T16:29:44.565Z,53.95
2022-10-19T16:32:12.112Z,54.06
2022-10-19T16:34:39.621Z,54.16
2022-10-19T16:37:07.612Z,54.12
2022-10-19T16:39:35.201Z,54.02
2022-10-19T16:42:03.174Z,54.19
2022-10-19T16:44:30.922Z,54.13
2022-10-19T16:46:59.896Z,54.17
2022-10-19T16:49:27.510Z,54.22
2022-10-19T16:51:57.421Z,54.04
2022-10-19T16:54:32.710Z,53.94
2022-10-19T16:57:00.279Z,54.29
2022-10-19T16:59:27.527Z,54.14
2022-10-19T17:01:55.228Z,54.34
2022-10-19T17:04:22.562Z,54.20
2022-10-19T17:06:50.139Z,54.27
2022-10-19T17:12:06.758Z,54.33
2022-10-19T17:14:35.106Z,54.40
2022-10-19T17:17:02.804Z,54.31
2022-10-19T17:19:30.153Z,54.29
2022-10-19T17:21:59.067Z,54.44
2022-10-19T17:24:26.478Z,54.30
2022-10-19T17:26:54.667Z,54.35
2022-10-19T17:29:23.040Z,54.43
2022-10-19T17:31:51.539Z,54.38
2022-10-19T17:34:19.219Z,54.20
2022-10-19T17:36:46.942Z,54.34
2022-10-19T17:39:24.426Z,54.34
2022-10-19T17:41:55.116Z,54.40
2022-10-19T17:44:22.946Z,54.65
2022-10-19T17:46:50.627Z,54.26
2022-10-19T17:49:18.824Z,54.29
2022-10-19T17:51:46.673Z,54.38
2022-10-19T17:54:15.195Z,54.20
2022-10-19T17:56:45.196Z,54.37
2022-10-19T17:59:13.236Z,54.42
2022-10-19T18:01:41.272Z,54.38
2022-10-19T18:04:08.764Z,54.31
2022-10-19T18:06:38.204Z,54.42
2022-10-19T18:09:09.098Z,54.71
2022-10-19T18:11:41.132Z,54.38
2022-10-19T18:14:10.021Z,54.40
2022-10-19T18:16:44.717Z,54.37
2022-10-19T18:19:14.006Z,54.47
2022-10-19T18:21:44.197Z,54.39
2022-10-19T18:24:15.346Z,54.33
2022-10-19T18:26:43.530Z,54.32
2022-10-19T18:29:18.879Z,54.42
2022-10-19T18:31:51.362Z,54.49
2022-10-19T18:34:22.172Z,54.43
2022-10-19T18:36:50.507Z,54.38
2022-10-19T18:39:18.276Z,54.31
2022-10-19T18:41:46.151Z,54.37
2022-10-19T18:44:13.967Z,54.47
2022-10-19T18:46:41.648Z,54.38
2022-10-19T18:49:10.579Z,54.40
2022-10-19T18:51:38.705Z,54.42
2022-10-19T18:54:07.773Z,54.45
2022-10-19T18:56:36.611Z,54.46
2022-10-19T18:59:05.598Z,54.51
2022-10-19T19:01:33.321Z,54.30
2022-10-19T19:04:07.566Z,54.50
2022-10-19T19:06:36.351Z,54.62
2022-10-19T19:09:07.201Z,54.45
2022-10-19T19:11:38.140Z,54.51
2022-10-19T19:14:10.901Z,54.54
2022-10-19T19:16:39.475Z,54.52
2022-10-19T19:19:07.236Z,54.52
2022-10-19T19:21:36.431Z,54.56
2022-10-19T19:24:06.788Z,54.64
2022-10-19T19:26:39.052Z,54.44
2022-10-19T19:29:07.723Z,54.48
2022-10-19T19:31:35.929Z,54.30
2022-10-19T19:34:06.524Z,54.38
2022-10-19T19:36:35.656Z,54.45
2022-10-19T19:39:04.080Z,54.26
2022-10-19T19:41:34.115Z,54.45
2022-10-19T19:44:02.030Z,54.31
2022-10-19T19:46:30.546Z,54.31
2022-10-19T19:49:00.967Z,54.47
2022-10-19T19:51:30.622Z,54.37
2022-10-19T19:53:58.336Z,54.55
2022-10-19T19:56:26.442Z,54.57
2022-10-19T19:58:55.910Z,54.48
2022-10-19T20:01:24.305Z,54.59
2022-10-19T20:03:52.553Z,54.54
2022-10-19T20:06:23.587Z,54.61
2022-10-19T20:08:54.960Z,54.70
2022-10-19T20:11:24.273Z,54.80
2022-10-19T20:13:52.395Z,54.75
2022-10-19T20:16:26.555Z,54.77
2022-10-19T20:19:11.883Z,54.74
2022-10-19T20:21:40.498Z,54.64
2022-10-19T20:24:08.337Z,54.91
2022-10-19T20:26:36.153Z,54.95
2022-10-19T20:29:04.008Z,54.91
2022-10-19T20:31:33.503Z,55.11
2022-10-19T20:34:01.050Z,54.90
2022-10-19T20:36:28.769Z,54.95
2022-10-19T20:38:58.281Z,55.04
2022-10-19T20:41:28.383Z,55.05
2022-10-19T20:43:56.255Z,55.05
2022-10-19T20:46:26.775Z,55.06
2022-10-19T20:48:59.727Z,54.97
2022-10-19T20:51:31.994Z,55.04
2022-10-19T20:54:01.977Z,55.06
2022-10-19T20:56:35.724Z,54.99
2022-10-19T20:59:06.333Z,54.93
2022-10-19T21:01:35.734Z,55.05
2022-10-19T21:04:05.534Z,55.16
2022-10-19T21:06:37.628Z,55.02
2022-10-19T21:09:06.135Z,55.03
2022-10-19T21:11:36.444Z,55.13
2022-10-19T21:14:27.216Z,55.00
2022-10-19T21:16:58.427Z,54.98
2022-10-19T21:19:28.145Z,55.19
2022-10-19T21:22:01.550Z,54.93
2022-10-19T21:24:35.251Z,55.07
2022-10-19T21:27:06.546Z,55.19
2022-10-19T21:29:34.315Z,55.18
2022-10-19T21:32:02.302Z,55.11
2022-10-19T21:34:31.122Z,55.10
2022-10-19T21:36:59.581Z,54.98
2022-10-19T21:39:28.370Z,55.06
2022-10-19T21:41:56.458Z,55.10
2022-10-19T21:44:24.498Z,55.15
2022-10-19T21:46:52.060Z,55.00
2022-10-19T21:49:19.457Z,54.96
2022-10-19T21:51:50.785Z,54.97
2022-10-19T21:54:21.238Z,54.98
2022-10-19T21:56:49.060Z,54.83
2022-10-19T21:59:17.433Z,54.98
2022-10-19T22:01:45.767Z,54.86
2022-10-19T22:04:15.135Z,54.83
2022-10-19T22:06:43.643Z,54.60
2022-10-19T22:09:17.088Z,54.85
2022-10-19T22:11:45.826Z,54.78
2022-10-19T22:14:14.559Z,54.55
2022-10-19T22:16:42.589Z,54.74
2022-10-19T22:19:10.942Z,54.68
2022-10-19T22:24:14.073Z,54.65
2022-10-19T22:26:44.645Z,54.77
2022-10-19T22:29:12.977Z,54.43
2022-10-19T22:31:40.669Z,54.69
2022-10-19T22:34:12.283Z,54.53
2022-10-19T22:36:39.877Z,54.56
2022-10-19T22:39:08.233Z,54.50
2022-10-19T22:41:35.891Z,54.47
2022-10-19T22:44:03.314Z,54.53
2022-10-19T22:46:30.850Z,54.46
2022-10-19T22:48:58.325Z,54.42
2022-10-19T22:51:26.078Z,54.32
2022-10-19T22:53:53.821Z,54.27
2022-10-19T22:56:21.317Z,54.16
2022-10-19T22:58:48.701Z,54.23
2022-10-19T23:01:16.446Z,54.31
2022-10-19T23:03:44.827Z,54.27
2022-10-19T23:06:14.121Z,54.29
2022-10-19T23:08:42.901Z,54.26
2022-10-19T23:11:11.274Z,54.11
2022-10-19T23:13:38.908Z,54.12
2022-10-19T23:16:07.126Z,54.27
2022-10-19T23:18:35.860Z,54.25
2022-10-19T23:21:06.653Z,54.12
2022-10-19T23:23:35.428Z,54.14
2022-10-19T23:26:10.509Z,54.12
2022-10-19T23:28:40.682Z,53.99
2022-10-19T23:31:11.445Z,54.18
2022-10-19T23:33:40.049Z,54.11
2022-10-19T23:36:08.850Z,54.21
2022-10-19T23:38:37.037Z,53.92
2022-10-19T23:41:04.866Z,54.18
2022-10-19T23:43:32.266Z,54.08
2022-10-19T23:46:00.297Z,53.98
2022-10-19T23:48:28.856Z,54.10
2022-10-19T23:51:01.908Z,54.07
2022-10-19T23:53:31.962Z,54.07
2022-10-19T23:57:04.865Z,54.01
2022-10-19T23:59:34.061Z,54.07
